Time;durP1;ratioP1;P1;durP2;ratioP2;P2;SDS_P1;SDS_P2;PMS_P1;PMS_P2;Temp;Humidity;BMP_temperature;BMP_pressure;BME280_temperature;BME280_humidity;BME280_pressure;Samples;Min_cycle;Max_cycle;Signal;HPM_P1;HPM_P2
2021/06/24 00:00:13;;;;;;;12.00;11.10;;;16.50;99.90;;;;;;4919791;29;20208;-77
2021/06/24 00:02:40;;;;;;;11.40;10.70;;;16.40;99.90;;;;;;4942186;23;20246;-74
2021/06/24 00:05:09;;;;;;;11.47;10.77;;;16.40;99.90;;;;;;4917534;29;20691;-74
2021/06/24 00:07:36;;;;;;;12.03;11.33;;;16.40;99.90;;;;;;4917650;29;20200;-74
2021/06/24 00:10:04;;;;;;;11.77;11.07;;;16.40;99.90;;;;;;4917780;29;20209;-74
2021/06/24 00:12:31;;;;;;;11.63;10.93;;;16.40;99.90;;;;;;4916298;29;20230;-74
2021/06/24 00:14:59;;;;;;;12.40;11.70;;;16.40;99.90;;;;;;4917710;29;20223;-74
2021/06/24 00:17:25;;;;;;;13.03;12.23;;;16.40;99.90;;;;;;4917232;29;20565;-73
2021/06/24 00:19:52;;;;;;;12.17;11.47;;;16.40;99.90;;;;;;4917515;29;20192;-74
2021/06/24 00:22:20;;;;;;;11.70;11.00;;;16.40;99.90;;;;;;4917374;29;20611;-74
2021/06/24 00:24:47;;;;;;;11.67;10.97;;;16.40;99.90;;;;;;4917431;29;20220;-73
2021/06/24 00:27:14;;;;;;;11.90;11.20;;;16.40;99.90;;;;;;4917408;29;20209;-74
2021/06/24 00:29:41;;;;;;;11.40;10.70;;;16.50;99.90;;;;;;4917353;29;20197;-74
2021/06/24 00:32:08;;;;;;;10.70;10.10;;;16.40;99.90;;;;;;4916680;29;20217;-74
2021/06/24 00:34:35;;;;;;;10.27;9.57;;;16.40;99.90;;;;;;4916552;29;20197;-74
2021/06/24 00:37:02;;;;;;;10.57;9.97;;;16.40;99.90;;;;;;4917077;29;20213;-73
2021/06/24 00:39:30;;;;;;;10.30;9.60;;;16.40;99.90;;;;;;4915683;29;20216;-74
2021/06/24 00:41:58;;;;;;;9.40;8.80;;;16.30;99.90;;;;;;4915851;29;20231;-74
2021/06/24 00:44:25;;;;;;;9.40;8.90;;;16.40;99.90;;;;;;4915771;29;20224;-74
2021/06/24 00:46:52;;;;;;;9.30;8.70;;;16.40;99.90;;;;;;4912057;29;20210;-74
2021/06/24 00:49:19;;;;;;;9.00;8.43;;;16.40;99.90;;;;;;4916931;29;20724;-73
2021/06/24 00:51:47;;;;;;;9.60;9.00;;;16.40;99.90;;;;;;4915492;29;20220;-74
2021/06/24 00:54:14;;;;;;;9.47;8.87;;;16.40;99.90;;;;;;4915889;29;20204;-74
2021/06/24 00:56:43;;;;;;;9.30;8.60;;;16.40;99.90;;;;;;4915486;29;20260;-73
2021/06/24 00:59:10;;;;;;;9.80;9.20;;;16.40;99.90;;;;;;4915541;29;20235;-73
2021/06/24 01:01:37;;;;;;;9.60;9.00;;;16.40;99.90;;;;;;4916752;29;20249;-74
2021/06/24 01:04:04;;;;;;;9.90;9.17;;;16.40;99.90;;;;;;4915384;29;20261;-74
2021/06/24 01:06:31;;;;;;;9.70;9.10;;;16.40;99.90;;;;;;4915445;29;20200;-74
2021/06/24 01:08:58;;;;;;;9.30;8.70;;;16.40;99.90;;;;;;4916817;29;20224;-74
2021/06/24 01:11:25;;;;;;;9.40;8.80;;;16.30;99.90;;;;;;4915252;29;20229;-73
2021/06/24 01:13:54;;;;;;;10.00;9.10;;;16.40;99.90;;;;;;4915819;29;20654;-74
2021/06/24 01:16:22;;;;;;;9.30;8.70;;;16.40;99.90;;;;;;4914454;29;20253;-73
2021/06/24 01:18:51;;;;;;;9.30;8.70;;;16.30;99.90;;;;;;4915181;29;20296;-74
2021/06/24 01:21:18;;;;;;;9.53;8.87;;;16.30;99.90;;;;;;4915115;29;20224;-74
2021/06/24 01:23:47;;;;;;;10.10;9.50;;;16.30;99.90;;;;;;4915069;29;20222;-74
2021/06/24 01:26:15;;;;;;;10.07;9.47;;;16.20;99.90;;;;;;4910795;29;20243;-74
2021/06/24 01:28:42;;;;;;;10.30;9.70;;;16.20;99.90;;;;;;4915247;29;20205;-73
2021/06/24 01:31:10;;;;;;;10.57;9.87;;;16.20;99.90;;;;;;4914926;29;20236;-74
2021/06/24 01:33:37;;;;;;;10.97;10.27;;;16.10;99.90;;;;;;4916150;29;20203;-73
2021/06/24 01:36:06;;;;;;;12.50;11.60;;;16.10;99.90;;;;;;4915258;29;20257;-74
2021/06/24 01:38:38;;;;;;;10.00;9.40;;;16.00;99.90;;;;;;4916196;29;20264;-73
2021/06/24 01:41:16;;;;;;;11.97;11.17;;;16.00;99.90;;;;;;4914825;29;20603;-73
2021/06/24 01:43:45;;;;;;;12.00;11.20;;;16.00;99.90;;;;;;4913934;29;20343;-73
2021/06/24 01:46:13;;;;;;;13.03;12.23;;;16.00;99.90;;;;;;4915003;29;20259;-74
2021/06/24 01:48:40;;;;;;;13.37;12.57;;;16.00;99.90;;;;;;4915871;29;20282;-74
2021/06/24 01:51:09;;;;;;;12.87;12.07;;;15.90;99.90;;;;;;4914565;29;20216;-73
2021/06/24 01:53:36;;;;;;;11.53;10.83;;;15.90;99.90;;;;;;4914696;29;20637;-74
2021/06/24 01:56:06;;;;;;;10.30;9.60;;;15.90;99.90;;;;;;4916007;29;20192;-73
2021/06/24 01:58:37;;;;;;;10.80;10.00;;;15.90;99.90;;;;;;4915720;29;20224;-74
2021/06/24 02:01:33;;;;;;;10.90;10.20;;;15.90;99.90;;;;;;4907262;29;20239;-74
2021/06/24 02:04:11;;;;;;;11.40;10.50;;;15.90;99.90;;;;;;4914592;29;20251;-74
2021/06/24 02:06:38;;;;;;;11.90;11.03;;;15.90;99.90;;;;;;4914369;29;20217;-74
2021/06/24 02:09:21;;;;;;;11.90;11.13;;;15.90;99.90;;;;;;4914304;29;20207;-73
2021/06/24 02:11:55;;;;;;;11.50;10.70;;;15.90;99.90;;;;;;4908327;29;20220;-73
2021/06/24 02:14:26;;;;;;;11.20;10.50;;;15.80;99.90;;;;;;4914412;29;20204;-74
2021/06/24 02:16:53;;;;;;;11.80;11.00;;;15.80;99.90;;;;;;4914526;29;20326;-74
2021/06/24 02:19:20;;;;;;;12.93;12.13;;;15.70;99.90;;;;;;4914146;29;20322;-73
2021/06/24 02:22:06;;;;;;;12.60;11.70;;;15.80;99.90;;;;;;4909960;29;20633;-74
2021/06/24 02:24:38;;;;;;;12.87;12.10;;;15.70;99.90;;;;;;4914247;29;20216;-74
2021/06/24 02:27:06;;;;;;;11.67;11.07;;;15.70;99.90;;;;;;4914241;29;20202;-74
2021/06/24 02:29:54;;;;;;;13.67;12.53;;;15.70;99.90;;;;;;4915271;29;20348;-74
2021/06/24 02:32:21;;;;;;;13.50;12.63;;;15.60;99.90;;;;;;4915388;29;20227;-73
2021/06/24 02:34:57;;;;;;;13.20;12.37;;;15.70;99.90;;;;;;4904201;29;20231;-76
2021/06/24 02:37:46;;;;;;;12.20;11.50;;;15.70;99.90;;;;;;4915091;29;20287;-76
2021/06/24 02:40:35;;;;;;;13.93;13.13;;;15.60;99.90;;;;;;4918339;29;20207;-76
2021/06/24 02:43:02;;;;;;;14.07;13.27;;;15.50;99.90;;;;;;4921078;29;20634;-76
2021/06/24 02:45:40;;;;;;;13.80;13.00;;;15.50;99.90;;;;;;4920216;29;20234;-76
2021/06/24 02:48:08;;;;;;;13.13;12.33;;;15.40;99.90;;;;;;4921334;29;20192;-77
2021/06/24 02:50:36;;;;;;;13.63;12.83;;;15.40;99.90;;;;;;4929889;29;20212;-77
2021/06/24 02:53:10;;;;;;;13.47;12.67;;;15.40;99.90;;;;;;4926354;29;20200;-77
2021/06/24 02:55:38;;;;;;;10.83;10.23;;;15.30;99.90;;;;;;4924936;29;20614;-77
2021/06/24 02:58:06;;;;;;;12.73;11.93;;;15.30;99.90;;;;;;4920614;29;20204;-77
2021/06/24 03:00:53;;;;;;;11.73;11.03;;;15.30;99.90;;;;;;4924824;29;20211;-76
2021/06/24 03:03:32;;;;;;;9.63;9.03;;;15.30;99.90;;;;;;4921981;29;20207;-76
2021/06/24 03:06:06;;;;;;;9.30;8.70;;;15.40;99.90;;;;;;4922424;29;20208;-77
2021/06/24 03:08:33;;;;;;;9.70;9.10;;;15.30;99.90;;;;;;4915271;29;20259;-78
2021/06/24 03:11:04;;;;;;;9.50;9.00;;;15.30;99.90;;;;;;4914876;29;20223;-74
2021/06/24 03:13:33;;;;;;;8.50;8.00;;;15.30;99.90;;;;;;4913694;29;20267;-75
2021/06/24 03:16:04;;;;;;;8.27;7.70;;;15.30;99.90;;;;;;4915367;29;20219;-77
2021/06/24 03:18:31;;;;;;;8.50;7.90;;;15.30;99.90;;;;;;4914243;29;20208;-76
2021/06/24 03:20:59;;;;;;;8.77;8.17;;;15.40;99.90;;;;;;4914566;29;20247;-74
2021/06/24 03:23:26;;;;;;;9.17;8.57;;;15.40;99.90;;;;;;4916034;29;20278;-76
2021/06/24 03:25:55;;;;;;;8.67;8.03;;;15.40;99.90;;;;;;4913759;29;20243;-76
2021/06/24 03:28:23;;;;;;;8.67;7.97;;;15.40;99.90;;;;;;4911880;29;20279;-73
2021/06/24 03:31:16;;;;;;;8.90;8.20;;;15.40;99.90;;;;;;4910773;29;20220;-74
2021/06/24 03:33:43;;;;;;;8.43;7.77;;;15.40;99.90;;;;;;4911795;29;20207;-74
2021/06/24 03:36:11;;;;;;;8.90;8.30;;;15.40;99.90;;;;;;4912104;29;20212;-73
2021/06/24 03:38:44;;;;;;;8.70;8.10;;;15.50;99.90;;;;;;4913327;29;20200;-73
2021/06/24 03:41:12;;;;;;;9.20;8.60;;;15.50;99.90;;;;;;4914858;29;20220;-73
2021/06/24 03:43:39;;;;;;;9.07;8.43;;;15.50;99.90;;;;;;4916811;29;20204;-74
2021/06/24 03:46:06;;;;;;;9.83;9.13;;;15.50;99.90;;;;;;4916393;29;20647;-74
2021/06/24 03:48:37;;;;;;;9.57;8.97;;;15.50;99.90;;;;;;4916758;29;20196;-73
2021/06/24 03:51:15;;;;;;;9.93;9.30;;;15.50;99.90;;;;;;4916544;29;20234;-73
2021/06/24 03:53:43;;;;;;;11.13;10.40;;;15.60;99.90;;;;;;4917970;29;20213;-74
2021/06/24 03:56:11;;;;;;;12.47;11.70;;;15.50;99.90;;;;;;4916860;29;20214;-74
2021/06/24 03:58:42;;;;;;;12.43;11.50;;;15.60;99.90;;;;;;4917902;29;20283;-74
2021/06/24 04:01:11;;;;;;;11.40;10.70;;;15.70;99.90;;;;;;4916286;29;20287;-74
2021/06/24 04:03:39;;;;;;;12.03;11.23;;;15.70;99.90;;;;;;4917917;29;20192;-73
2021/06/24 04:06:10;;;;;;;12.03;11.20;;;15.80;99.90;;;;;;4916571;29;20287;-74
2021/06/24 04:08:37;;;;;;;12.53;11.80;;;15.70;99.90;;;;;;4916417;29;20215;-74
2021/06/24 04:11:13;;;;;;;11.63;10.83;;;15.80;99.90;;;;;;4917650;29;20644;-74
2021/06/24 04:13:44;;;;;;;10.70;9.90;;;15.80;99.90;;;;;;4916485;29;20711;-74
2021/06/24 04:16:30;;;;;;;13.70;12.80;;;15.90;99.90;;;;;;4917817;29;20263;-73
2021/06/24 04:18:59;;;;;;;13.37;12.57;;;16.00;99.90;;;;;;4917616;29;20192;-74
2021/06/24 04:21:26;;;;;;;10.07;9.40;;;16.20;99.90;;;;;;4916073;29;20707;-74
2021/06/24 04:23:54;;;;;;;12.03;11.33;;;16.30;99.90;;;;;;4916285;29;20201;-74
2021/06/24 04:26:22;;;;;;;11.03;10.23;;;16.40;99.90;;;;;;4910208;29;20231;-73
2021/06/24 04:28:49;;;;;;;13.97;13.10;;;16.50;99.90;;;;;;4931781;29;20808;-74
2021/06/24 04:31:16;;;;;;;15.60;14.70;;;16.60;99.90;;;;;;4915754;29;20220;-74
2021/06/24 04:33:43;;;;;;;14.97;14.07;;;16.60;99.90;;;;;;4917456;29;20203;-74
2021/06/24 04:36:34;;;;;;;13.50;12.70;;;16.80;99.90;;;;;;4916082;29;20200;-74
2021/06/24 04:39:07;;;;;;;14.63;13.63;;;17.10;99.90;;;;;;4910148;29;20284;-73
2021/06/24 04:41:34;;;;;;;13.03;12.23;;;17.30;99.90;;;;;;4915732;29;20239;-74
2021/06/24 04:44:06;;;;;;;12.43;11.73;;;17.50;99.90;;;;;;4915981;29;20208;-74
2021/06/24 04:46:35;;;;;;;12.57;11.77;;;17.60;99.90;;;;;;4915806;29;20202;-74
2021/06/24 04:49:04;;;;;;;11.20;10.50;;;17.70;99.90;;;;;;4915772;29;20681;-74
2021/06/24 04:51:58;;;;;;;10.57;9.83;;;17.90;99.90;;;;;;4914700;29;20228;-74
2021/06/24 04:54:45;;;;;;;11.40;10.70;;;18.30;99.90;;;;;;4917209;29;20333;-74
2021/06/24 04:57:13;;;;;;;4.87;4.47;;;18.70;99.90;;;;;;4915685;29;20582;-73
2021/06/24 05:00:09;;;;;;;5.00;4.63;;;19.10;99.90;;;;;;4909915;29;20235;-74
2021/06/24 05:02:54;;;;;;;7.30;6.80;;;19.10;99.90;;;;;;4916702;29;20908;-74
2021/06/24 05:05:33;;;;;;;4.83;4.43;;;19.20;99.90;;;;;;4915480;29;20326;-74
2021/06/24 05:08:08;;;;;;;4.70;4.40;;;19.00;99.90;;;;;;4916619;29;20239;-74
2021/06/24 05:10:34;;;;;;;10.93;10.33;;;19.10;99.90;;;;;;4916891;29;20276;-74
2021/06/24 05:13:01;;;;;;;11.10;10.40;;;19.20;99.90;;;;;;4916869;29;20593;-74
2021/06/24 05:15:28;;;;;;;10.90;10.20;;;19.20;99.90;;;;;;4915241;29;20209;-74
2021/06/24 05:17:55;;;;;;;4.20;3.90;;;19.40;99.90;;;;;;4916558;29;20198;-74
2021/06/24 05:20:22;;;;;;;4.00;3.80;;;19.60;99.90;;;;;;4915107;29;20205;-74
2021/06/24 05:22:49;;;;;;;4.83;4.43;;;19.70;99.90;;;;;;4916139;29;20223;-74
2021/06/24 05:25:18;;;;;;;4.70;4.30;;;19.60;99.90;;;;;;4916397;29;20597;-73
2021/06/24 05:27:45;;;;;;;5.23;4.93;;;19.50;99.90;;;;;;4915010;29;20678;-74
2021/06/24 05:30:12;;;;;;;4.80;4.50;;;19.50;99.90;;;;;;4916368;29;20202;-74
2021/06/24 05:32:40;;;;;;;9.20;8.70;;;19.50;99.90;;;;;;4916094;29;20221;-74
2021/06/24 05:35:08;;;;;;;10.00;9.40;;;19.50;99.90;;;;;;4916500;29;20602;-75
2021/06/24 05:37:35;;;;;;;10.97;10.37;;;19.80;99.90;;;;;;4915925;29;20701;-74
2021/06/24 05:40:02;;;;;;;4.13;3.90;;;20.10;99.90;;;;;;4916106;29;20206;-74
2021/06/24 05:42:30;;;;;;;11.60;10.90;;;20.60;99.90;;;;;;4915984;29;20703;-74
2021/06/24 05:44:57;;;;;;;4.40;4.00;;;21.20;99.90;;;;;;4914530;29;20224;-74
2021/06/24 05:47:24;;;;;;;5.87;5.37;;;21.90;99.90;;;;;;4914796;29;20203;-75
2021/06/24 05:49:50;;;;;;;12.10;11.40;;;22.70;99.90;;;;;;4914657;29;20192;-75
2021/06/24 05:52:17;;;;;;;11.40;10.70;;;23.20;99.90;;;;;;4915809;29;20235;-75
2021/06/24 05:54:44;;;;;;;10.70;10.00;;;23.60;99.90;;;;;;4915865;29;20790;-75
2021/06/24 05:57:11;;;;;;;10.47;9.77;;;24.10;99.90;;;;;;4915754;29;20204;-74
2021/06/24 05:59:39;;;;;;;9.83;9.23;;;24.40;99.90;;;;;;4915522;29;20200;-75
2021/06/24 06:02:06;;;;;;;5.00;4.60;;;24.70;99.90;;;;;;4939861;23;20235;-80
2021/06/24 06:04:33;;;;;;;4.67;4.23;;;24.90;99.90;;;;;;4916047;29;20214;-80
2021/06/24 06:07:00;;;;;;;7.30;6.80;;;25.10;99.90;;;;;;4915901;29;20200;-80
2021/06/24 06:09:28;;;;;;;8.77;8.00;;;25.00;99.90;;;;;;4915739;29;20203;-80
2021/06/24 06:11:55;;;;;;;4.20;3.90;;;24.90;99.90;;;;;;4914680;29;20632;-80
2021/06/24 06:14:22;;;;;;;9.40;8.90;;;25.30;99.90;;;;;;4917521;29;20207;-80
2021/06/24 06:16:50;;;;;;;11.17;10.50;;;25.70;99.90;;;;;;4918963;29;20203;-80
2021/06/24 06:19:17;;;;;;;11.27;10.47;;;25.10;99.90;;;;;;4915631;29;20203;-78
2021/06/24 06:21:44;;;;;;;11.93;11.17;;;24.30;99.90;;;;;;4914381;29;20603;-77
2021/06/24 06:24:11;;;;;;;12.90;12.10;;;23.70;99.90;;;;;;4914207;29;20585;-78
2021/06/24 06:26:37;;;;;;;13.23;12.40;;;23.80;99.90;;;;;;4914456;29;20227;-77
2021/06/24 06:29:04;;;;;;;12.43;11.70;;;24.50;99.90;;;;;;4914456;29;20215;-77
2021/06/24 06:31:32;;;;;;;12.23;11.53;;;24.60;99.90;;;;;;4914394;29;20228;-77
2021/06/24 06:34:01;;;;;;;12.73;11.93;;;23.80;99.90;;;;;;4914582;29;20196;-77
2021/06/24 06:36:28;;;;;;;12.40;11.60;;;23.10;99.90;;;;;;4916054;29;20199;-77
2021/06/24 06:38:55;;;;;;;11.30;10.60;;;22.90;99.90;;;;;;4921968;29;20219;-79
2021/06/24 06:41:22;;;;;;;11.80;11.10;;;22.60;99.90;;;;;;4917448;29;20206;-78
2021/06/24 06:43:48;;;;;;;12.30;11.30;;;23.30;99.90;;;;;;4916180;29;20207;-78
2021/06/24 06:46:15;;;;;;;11.30;10.70;;;23.80;99.90;;;;;;4917892;29;20212;-78
2021/06/24 06:48:42;;;;;;;11.93;11.23;;;24.30;99.90;;;;;;4915397;29;20292;-78
2021/06/24 06:51:10;;;;;;;12.03;11.33;;;24.10;99.90;;;;;;4911454;29;20208;-78
2021/06/24 06:53:37;;;;;;;11.60;10.90;;;24.40;99.90;;;;;;4917413;29;20268;-78
2021/06/24 06:56:05;;;;;;;11.17;10.57;;;24.80;99.90;;;;;;4917401;29;20196;-78
2021/06/24 06:58:32;;;;;;;10.93;10.33;;;25.00;99.90;;;;;;4915877;29;20203;-78
2021/06/24 07:00:59;;;;;;;10.80;9.93;;;25.20;99.90;;;;;;4917071;29;20207;-78
2021/06/24 07:03:26;;;;;;;10.67;9.93;;;24.60;99.90;;;;;;4915819;29;20715;-78
2021/06/24 07:05:53;;;;;;;10.47;9.87;;;23.80;99.90;;;;;;4915724;29;20216;-78
2021/06/24 07:08:21;;;;;;;10.50;9.90;;;23.80;99.90;;;;;;4917035;29;20198;-78
2021/06/24 07:10:48;;;;;;;10.00;9.40;;;24.20;99.90;;;;;;4915189;29;20709;-78
2021/06/24 07:13:15;;;;;;;10.20;9.60;;;24.30;99.90;;;;;;4915586;29;20220;-78
2021/06/24 07:15:42;;;;;;;10.27;9.67;;;24.10;99.90;;;;;;4919406;29;20683;-78
2021/06/24 07:18:11;;;;;;;10.47;9.87;;;24.50;99.90;;;;;;4919730;29;20239;-78
2021/06/24 07:20:39;;;;;;;10.87;10.17;;;24.50;99.90;;;;;;4918783;29;20231;-78
2021/06/24 07:23:06;;;;;;;11.60;10.87;;;24.20;99.90;;;;;;4920559;29;20263;-78
2021/06/24 07:25:34;;;;;;;11.30;10.60;;;23.80;99.90;;;;;;4919049;29;20690;-78
2021/06/24 07:28:01;;;;;;;10.63;10.03;;;23.20;99.90;;;;;;4919854;29;20213;-78
2021/06/24 07:30:28;;;;;;;11.10;10.30;;;22.90;99.90;;;;;;4918934;29;20213;-78
2021/06/24 07:32:55;;;;;;;11.20;10.60;;;22.60;99.90;;;;;;4925533;29;20289;-79
2021/06/24 07:35:22;;;;;;;11.40;10.80;;;22.40;99.90;;;;;;4919492;29;20283;-79
2021/06/24 07:37:49;;;;;;;12.03;11.30;;;22.30;99.90;;;;;;4919641;29;20633;-79
2021/06/24 07:40:17;;;;;;;11.60;10.80;;;22.10;99.90;;;;;;4932178;29;20220;-79
2021/06/24 07:42:47;;;;;;;12.60;11.80;;;22.20;99.90;;;;;;4911501;29;20233;-80
2021/06/24 07:45:14;;;;;;;11.70;11.00;;;22.30;99.90;;;;;;4919027;29;20204;-78
2021/06/24 07:47:42;;;;;;;11.40;10.70;;;22.50;99.90;;;;;;4920105;29;20694;-79
2021/06/24 07:50:10;;;;;;;11.80;11.10;;;22.70;99.90;;;;;;4918236;29;20212;-79
2021/06/24 07:52:37;;;;;;;11.40;10.80;;;23.00;99.90;;;;;;4920585;29;20707;-79
2021/06/24 07:55:07;;;;;;;11.77;11.07;;;23.20;99.90;;;;;;4918272;29;20216;-79
2021/06/24 07:57:34;;;;;;;11.27;10.67;;;23.20;99.90;;;;;;4918175;29;20210;-79
2021/06/24 08:00:06;;;;;;;11.40;10.60;;;23.30;99.90;;;;;;4919496;29;20205;-79
2021/06/24 08:02:40;;;;;;;11.47;10.80;;;23.40;99.90;;;;;;4919373;29;20242;-79
2021/06/24 08:05:08;;;;;;;11.20;10.60;;;23.60;99.90;;;;;;4920078;29;20732;-80
2021/06/24 08:07:36;;;;;;;10.83;10.23;;;23.60;99.90;;;;;;4918134;29;20218;-79
2021/06/24 08:10:03;;;;;;;11.10;10.50;;;23.60;99.90;;;;;;4919352;29;20200;-79
2021/06/24 08:12:31;;;;;;;11.17;10.57;;;23.80;99.90;;;;;;4917635;29;20226;-79
2021/06/24 08:14:57;;;;;;;10.33;9.73;;;23.80;99.90;;;;;;4903594;29;20224;-79
2021/06/24 08:17:26;;;;;;;10.53;9.93;;;24.30;99.90;;;;;;4919369;29;20632;-80
2021/06/24 08:19:53;;;;;;;10.30;9.70;;;24.80;99.90;;;;;;4919014;29;20286;-79
2021/06/24 08:22:20;;;;;;;11.10;10.40;;;25.30;99.90;;;;;;4919143;29;20224;-80
2021/06/24 08:24:47;;;;;;;9.37;8.87;;;25.60;99.90;;;;;;4918783;29;20263;-79
2021/06/24 08:27:14;;;;;;;10.20;9.60;;;25.40;99.90;;;;;;4918596;29;20580;-80
2021/06/24 08:29:41;;;;;;;9.63;9.00;;;25.40;99.90;;;;;;4919131;29;20682;-79
2021/06/24 08:32:08;;;;;;;9.67;9.07;;;25.30;99.90;;;;;;4917391;29;20723;-80
2021/06/24 08:34:36;;;;;;;9.80;9.20;;;25.20;99.90;;;;;;4917258;29;20204;-79
2021/06/24 08:37:03;;;;;;;9.43;8.90;;;24.70;99.90;;;;;;4917793;29;20219;-80
2021/06/24 08:39:30;;;;;;;9.50;8.90;;;24.60;99.90;;;;;;4917365;29;20200;-79
2021/06/24 08:41:57;;;;;;;10.00;9.40;;;24.90;99.90;;;;;;4916315;29;20220;-79
2021/06/24 08:44:25;;;;;;;10.00;9.30;;;25.70;99.90;;;;;;4916437;29;20214;-79
2021/06/24 08:46:56;;;;;;;9.53;9.03;;;26.10;99.90;;;;;;4916227;29;20224;-79
2021/06/24 08:49:24;;;;;;;11.80;11.10;;;26.10;99.90;;;;;;4917552;29;20572;-80
2021/06/24 08:51:55;;;;;;;10.03;9.33;;;26.10;99.90;;;;;;4930198;29;20729;-80
2021/06/24 08:54:22;;;;;;;9.53;8.93;;;26.00;99.90;;;;;;4917455;29;20200;-79
2021/06/24 08:56:50;;;;;;;9.90;9.30;;;26.20;99.90;;;;;;4916335;29;20671;-79
2021/06/24 08:59:17;;;;;;;9.33;8.73;;;26.10;99.90;;;;;;4917970;29;20263;-80
2021/06/24 09:01:49;;;;;;;9.53;8.93;;;26.20;99.90;;;;;;4915473;29;20232;-79
2021/06/24 09:04:16;;;;;;;10.23;9.43;;;25.90;99.90;;;;;;4916841;29;20208;-80
2021/06/24 09:06:43;;;;;;;10.40;9.80;;;25.50;99.90;;;;;;4915712;29;20230;-79
2021/06/24 09:09:23;;;;;;;10.90;10.30;;;25.30;99.90;;;;;;4931527;29;20192;-79
2021/06/24 09:11:59;;;;;;;10.60;9.97;;;25.40;99.90;;;;;;4917392;29;20227;-79
2021/06/24 09:14:43;;;;;;;10.80;9.97;;;26.00;99.90;;;;;;4915660;29;20224;-79
2021/06/24 09:17:11;;;;;;;11.10;10.40;;;26.30;99.90;;;;;;4915901;29;20583;-79
2021/06/24 09:19:40;;;;;;;10.40;9.80;;;26.50;99.90;;;;;;4917890;29;20200;-79
2021/06/24 09:22:09;;;;;;;10.17;9.63;;;26.20;99.90;;;;;;4915838;29;20228;-79
2021/06/24 09:24:39;;;;;;;10.30;9.70;;;26.20;99.90;;;;;;4916927;29;20207;-79
2021/06/24 09:27:24;;;;;;;10.40;9.80;;;26.10;99.90;;;;;;4916607;29;20219;-78
2021/06/24 09:29:51;;;;;;;9.70;9.00;;;25.80;99.90;;;;;;4916042;29;20203;-79
2021/06/24 09:32:31;;;;;;;9.80;9.10;;;25.70;99.90;;;;;;4915790;29;20224;-80
2021/06/24 09:34:58;;;;;;;10.63;10.03;;;25.70;99.90;;;;;;4915798;29;20200;-79
2021/06/24 09:37:25;;;;;;;11.07;10.47;;;25.70;99.90;;;;;;4915121;29;20200;-79
2021/06/24 09:39:55;;;;;;;10.00;9.40;;;25.60;99.90;;;;;;4917232;29;20207;-79
2021/06/24 09:42:23;;;;;;;10.10;9.40;;;25.70;99.90;;;;;;4916662;29;20228;-80
2021/06/24 09:44:50;;;;;;;9.60;9.00;;;25.80;99.90;;;;;;4917234;29;20200;-79
2021/06/24 09:47:20;;;;;;;9.87;9.23;;;25.70;99.90;;;;;;4916319;29;20227;-79
2021/06/24 09:49:58;;;;;;;9.93;9.33;;;25.70;99.90;;;;;;4915065;29;20199;-78
2021/06/24 09:52:25;;;;;;;9.77;9.17;;;25.70;99.90;;;;;;4916755;29;20211;-79
2021/06/24 09:55:04;;;;;;;9.97;9.37;;;25.50;99.90;;;;;;4916732;29;20222;-79
2021/06/24 09:57:31;;;;;;;9.23;8.63;;;25.20;99.90;;;;;;4915403;29;20196;-80
2021/06/24 09:59:58;;;;;;;9.23;8.73;;;25.10;99.90;;;;;;4915864;29;20208;-79
2021/06/24 10:02:25;;;;;;;9.17;8.67;;;24.90;99.90;;;;;;4917401;29;20232;-80
2021/06/24 10:04:54;;;;;;;8.90;8.30;;;25.10;99.90;;;;;;4914843;29;20203;-79
2021/06/24 10:07:21;;;;;;;9.00;8.50;;;25.20;99.90;;;;;;4915023;29;20223;-79
2021/06/24 10:09:48;;;;;;;8.60;8.10;;;25.50;99.90;;;;;;4914740;29;20200;-79
2021/06/24 10:12:19;;;;;;;9.00;8.50;;;25.70;99.90;;;;;;4917885;29;20227;-79
2021/06/24 10:14:48;;;;;;;8.07;7.63;;;26.30;99.90;;;;;;4919947;29;20291;-79
2021/06/24 10:17:15;;;;;;;8.80;8.30;;;26.80;99.90;;;;;;4920865;29;20195;-80
2021/06/24 10:19:44;;;;;;;9.43;8.83;;;27.20;99.90;;;;;;4918206;29;20212;-79
2021/06/24 10:22:14;;;;;;;9.13;8.50;;;27.70;99.90;;;;;;4929810;29;20224;-80
2021/06/24 10:24:46;;;;;;;9.23;8.73;;;27.70;99.90;;;;;;4917222;29;20281;-81
2021/06/24 10:27:14;;;;;;;8.90;8.40;;;28.00;99.90;;;;;;4917517;29;20287;-80
2021/06/24 10:29:45;;;;;;;9.63;9.13;;;28.00;99.90;;;;;;4917550;29;20200;-80
2021/06/24 10:32:30;;;;;;;8.63;8.13;;;27.80;99.90;;;;;;4919102;29;20251;-80
2021/06/24 10:34:58;;;;;;;8.03;7.53;;;27.40;99.90;;;;;;4915523;29;20232;-81
2021/06/24 10:37:26;;;;;;;7.77;7.37;;;27.20;99.90;;;;;;4918916;29;20196;-80
2021/06/24 10:39:55;;;;;;;7.77;7.27;;;27.10;99.90;;;;;;4918327;29;20196;-79
2021/06/24 10:42:23;;;;;;;7.87;7.37;;;26.90;99.90;;;;;;4919067;29;20601;-80
2021/06/24 10:44:55;;;;;;;9.00;8.50;;;26.50;99.90;;;;;;4917502;29;20231;-80
2021/06/24 10:47:39;;;;;;;9.00;8.30;;;26.00;99.90;;;;;;4917021;29;20226;-79
2021/06/24 10:50:36;;;;;;;8.63;8.03;;;25.70;99.90;;;;;;4935987;29;20195;-80
2021/06/24 10:53:40;;;;;;;8.70;8.20;;;25.30;99.90;;;;;;4906676;29;20219;-79
2021/06/24 10:56:24;;;;;;;9.20;8.50;;;24.70;99.90;;;;;;4920400;29;20199;-79
2021/06/24 10:58:51;;;;;;;8.60;8.00;;;24.10;99.90;;;;;;4921806;29;20207;-79
2021/06/24 11:01:44;;;;;;;8.87;8.27;;;23.60;99.90;;;;;;4919873;29;20213;-79
2021/06/24 11:04:31;;;;;;;9.13;8.53;;;23.20;99.90;;;;;;4916740;29;20255;-79
2021/06/24 11:06:59;;;;;;;8.83;8.23;;;22.80;99.90;;;;;;4914683;29;20291;-79
2021/06/24 11:09:26;;;;;;;9.13;8.53;;;22.60;99.90;;;;;;4919875;29;20204;-79
2021/06/24 11:11:54;;;;;;;8.80;8.20;;;22.70;99.90;;;;;;4921244;29;20222;-79
2021/06/24 11:14:54;;;;;;;8.57;7.87;;;22.90;99.90;;;;;;4921143;29;20647;-79
2021/06/24 11:17:49;;;;;;;8.47;7.97;;;23.20;99.90;;;;;;4928571;29;20635;-79
2021/06/24 11:20:19;;;;;;;7.07;6.57;;;23.40;99.90;;;;;;4915689;29;20287;-79
2021/06/24 11:22:48;;;;;;;5.00;4.60;;;23.80;99.90;;;;;;4920538;29;20216;-79
2021/06/24 11:25:15;;;;;;;9.40;8.87;;;24.30;99.90;;;;;;4920696;29;20211;-79
2021/06/24 11:27:42;;;;;;;10.10;9.50;;;24.60;99.90;;;;;;4920866;29;20725;-80
2021/06/24 11:30:11;;;;;;;6.53;6.13;;;25.00;99.90;;;;;;4922745;29;20204;-80
2021/06/24 11:32:42;;;;;;;9.20;8.57;;;25.40;99.90;;;;;;4920278;29;20272;-79
2021/06/24 11:35:29;;;;;;;8.80;8.30;;;25.50;99.90;;;;;;4920590;29;20222;-80
2021/06/24 11:38:02;;;;;;;3.43;3.23;;;25.40;99.90;;;;;;4913277;29;20203;-79
2021/06/24 11:40:29;;;;;;;8.70;8.20;;;25.70;99.90;;;;;;4923728;29;20200;-79
2021/06/24 11:42:57;;;;;;;8.33;7.83;;;25.50;99.90;;;;;;4920125;29;20710;-80
2021/06/24 11:45:25;;;;;;;8.50;8.00;;;25.80;99.90;;;;;;4918215;29;20721;-79
2021/06/24 11:47:56;;;;;;;8.13;7.63;;;26.00;99.90;;;;;;4919949;29;20230;-79
2021/06/24 12:03:03;;;;;;;8.80;8.30;;;26.60;99.90;;;;;;4917214;29;20299;-80
2021/06/24 12:04:45;;;;;;;8.57;8.07;;;26.60;99.90;;;;;;4878506;29;20205;-77
2021/06/24 12:07:15;;;;;;;8.40;7.90;;;26.40;99.90;;;;;;4894938;29;20685;-77
2021/06/24 12:09:43;;;;;;;8.27;7.87;;;26.30;99.90;;;;;;4893641;29;20664;-77
2021/06/24 12:12:17;;;;;;;8.37;7.80;;;26.20;99.90;;;;;;4894313;29;20312;-76
2021/06/24 12:14:45;;;;;;;8.33;7.87;;;26.30;99.90;;;;;;4880525;29;20202;-78
2021/06/24 12:17:16;;;;;;;8.30;7.83;;;26.50;99.90;;;;;;4879462;29;20204;-79
2021/06/24 12:19:54;;;;;;;8.50;8.10;;;26.70;99.90;;;;;;4894612;29;20209;-76
2021/06/24 12:22:24;;;;;;;7.90;7.50;;;26.60;99.90;;;;;;4894555;29;20225;-77
2021/06/24 12:24:52;;;;;;;8.40;7.90;;;26.40;99.90;;;;;;4894607;29;20197;-76
2021/06/24 12:27:27;;;;;;;8.10;7.70;;;26.20;99.90;;;;;;4880423;29;20225;-77
2021/06/24 12:29:57;;;;;;;8.20;7.60;;;26.30;99.90;;;;;;4880187;29;20271;-77
2021/06/24 12:32:24;;;;;;;7.70;7.30;;;26.20;99.90;;;;;;4894312;29;20229;-77
2021/06/24 12:34:54;;;;;;;7.50;7.10;;;26.20;99.90;;;;;;4878882;29;20205;-77
2021/06/24 12:37:35;;;;;;;7.70;7.30;;;26.20;99.90;;;;;;4880063;29;20205;-76
2021/06/24 12:40:04;;;;;;;7.70;7.30;;;26.40;99.90;;;;;;4894050;29;20201;-76
2021/06/24 12:42:31;;;;;;;7.40;7.00;;;26.50;99.90;;;;;;4894366;29;20236;-77
2021/06/24 12:45:00;;;;;;;7.70;7.20;;;26.60;99.90;;;;;;4880529;29;20193;-77
2021/06/24 12:47:37;;;;;;;7.50;7.10;;;26.80;99.90;;;;;;4894446;29;20229;-77
2021/06/24 12:50:29;;;;;;;8.17;7.77;;;26.80;99.90;;;;;;4894197;29;20213;-77
2021/06/24 12:52:59;;;;;;;7.97;7.57;;;27.10;99.90;;;;;;4863423;29;20254;-77
2021/06/24 12:55:41;;;;;;;8.00;7.60;;;27.30;99.90;;;;;;4879836;29;20225;-77
2021/06/24 12:58:10;;;;;;;7.90;7.40;;;27.40;99.90;;;;;;4890922;29;20193;-76
2021/06/24 13:00:38;;;;;;;7.73;7.33;;;27.20;99.90;;;;;;4879507;29;20587;-77
2021/06/24 13:03:06;;;;;;;7.50;7.10;;;27.20;99.90;;;;;;4893763;29;20240;-76
2021/06/24 13:05:34;;;;;;;7.00;6.60;;;27.10;99.90;;;;;;4880804;29;20197;-77